sensor_id;sensor_type;location;lat;lon;timestamp;temperature;humidity
7998;DHT22;4044;49.814;7.828;2023-04-03T00:00:40;6.10;99.90
7998;DHT22;4044;49.814;7.828;2023-04-03T00:03:06;6.20;99.90
7998;DHT22;4044;49.814;7.828;2023-04-03T00:05:31;6.20;99.90
7998;DHT22;4044;49.814;7.828;2023-04-03T00:07:57;6.20;99.90
7998;DHT22;4044;49.814;7.828;2023-04-03T00:10:22;6.20;99.90
7998;DHT22;4044;49.814;7.828;2023-04-03T00:12:48;6.20;99.70
7998;DHT22;4044;49.814;7.828;2023-04-03T00:15:13;6.30;99.90
7998;DHT22;4044;49.814;7.828;2023-04-03T00:17:39;6.20;99.60
7998;DHT22;4044;49.814;7.828;2023-04-03T00:20:05;6.20;99.70
7998;DHT22;4044;49.814;7.828;2023-04-03T00:22:31;6.20;99.90
7998;DHT22;4044;49.814;7.828;2023-04-03T00:24:56;6.10;99.40
7998;DHT22;4044;49.814;7.828;2023-04-03T00:27:22;6.00;99.50
7998;DHT22;4044;49.814;7.828;2023-04-03T00:29:47;6.00;99.90
7998;DHT22;4044;49.814;7.828;2023-04-03T00:32:13;6.00;99.90
7998;DHT22;4044;49.814;7.828;2023-04-03T00:34:39;6.00;99.90
7998;DHT22;4044;49.814;7.828;2023-04-03T00:37:04;5.90;99.90
7998;DHT22;4044;49.814;7.828;2023-04-03T00:39:30;5.80;99.60
7998;DHT22;4044;49.814;7.828;2023-04-03T00:41:55;5.70;99.90
7998;DHT22;4044;49.814;7.828;2023-04-03T00:46:59;5.70;99.90
7998;DHT22;4044;49.814;7.828;2023-04-03T00:49:26;5.60;99.90
7998;DHT22;4044;49.814;7.828;2023-04-03T00:51:52;5.60;99.90
7998;DHT22;4044;49.814;7.828;2023-04-03T00:54:18;5.70;99.90
7998;DHT22;4044;49.814;7.828;2023-04-03T00:56:44;5.70;99.90
7998;DHT22;4044;49.814;7.828;2023-04-03T00:59:16;5.70;99.90
7998;DHT22;4044;49.814;7.828;2023-04-03T01:01:46;5.80;99.90
7998;DHT22;4044;49.814;7.828;2023-04-03T01:04:27;5.90;99.90
7998;DHT22;4044;49.814;7.828;2023-04-03T01:06:56;6.00;99.90
7998;DHT22;4044;49.814;7.828;2023-04-03T01:09:22;6.10;99.90
7998;DHT22;4044;49.814;7.828;2023-04-03T01:11:48;6.10;99.90
7998;DHT22;4044;49.814;7.828;2023-04-03T01:14:13;6.10;99.90
7998;DHT22;4044;49.814;7.828;2023-04-03T01:16:39;6.10;99.90
7998;DHT22;4044;49.814;7.828;2023-04-03T01:19:08;6.10;99.90
7998;DHT22;4044;49.814;7.828;2023-04-03T01:22:24;6.10;99.90
7998;DHT22;4044;49.814;7.828;2023-04-03T01:24:51;6.10;99.90
7998;DHT22;4044;49.814;7.828;2023-04-03T01:27:18;6.10;99.90
7998;DHT22;4044;49.814;7.828;2023-04-03T01:29:44;6.20;99.90
7998;DHT22;4044;49.814;7.828;2023-04-03T01:32:10;6.00;99.90
7998;DHT22;4044;49.814;7.828;2023-04-03T01:34:35;6.20;99.90
7998;DHT22;4044;49.814;7.828;2023-04-03T01:37:01;6.20;99.90
7998;DHT22;4044;49.814;7.828;2023-04-03T01:39:26;6.20;99.90
7998;DHT22;4044;49.814;7.828;2023-04-03T01:41:52;6.20;99.90
7998;DHT22;4044;49.814;7.828;2023-04-03T01:44:17;6.10;99.90
7998;DHT22;4044;49.814;7.828;2023-04-03T01:46:43;6.10;99.90
7998;DHT22;4044;49.814;7.828;2023-04-03T01:49:09;6.10;99.90
7998;DHT22;4044;49.814;7.828;2023-04-03T01:51:34;6.00;99.90
7998;DHT22;4044;49.814;7.828;2023-04-03T01:54:00;6.00;99.90
7998;DHT22;4044;49.814;7.828;2023-04-03T01:56:26;5.90;99.90
7998;DHT22;4044;49.814;7.828;2023-04-03T01:58:52;6.00;99.90
7998;DHT22;4044;49.814;7.828;2023-04-03T02:01:17;6.00;99.90
7998;DHT22;4044;49.814;7.828;2023-04-03T02:03:43;5.90;99.90
7998;DHT22;4044;49.814;7.828;2023-04-03T02:06:08;5.90;99.90
7998;DHT22;4044;49.814;7.828;2023-04-03T02:08:34;5.80;99.90
7998;DHT22;4044;49.814;7.828;2023-04-03T02:10:59;5.80;99.90
7998;DHT22;4044;49.814;7.828;2023-04-03T02:13:25;5.80;99.90
7998;DHT22;4044;49.814;7.828;2023-04-03T02:15:51;5.70;99.90
7998;DHT22;4044;49.814;7.828;2023-04-03T02:18:16;5.70;99.90
7998;DHT22;4044;49.814;7.828;2023-04-03T02:20:42;5.80;99.90
7998;DHT22;4044;49.814;7.828;2023-04-03T02:23:07;5.70;99.90
7998;DHT22;4044;49.814;7.828;2023-04-03T02:25:33;5.70;99.90
7998;DHT22;4044;49.814;7.828;2023-04-03T02:27:59;5.50;99.90
7998;DHT22;4044;49.814;7.828;2023-04-03T02:30:25;5.50;99.90
7998;DHT22;4044;49.814;7.828;2023-04-03T02:32:50;5.40;99.90
7998;DHT22;4044;49.814;7.828;2023-04-03T02:35:16;5.40;99.90
7998;DHT22;4044;49.814;7.828;2023-04-03T02:37:42;5.40;99.90
7998;DHT22;4044;49.814;7.828;2023-04-03T02:40:08;5.30;99.90
7998;DHT22;4044;49.814;7.828;2023-04-03T02:42:33;5.40;99.90
7998;DHT22;4044;49.814;7.828;2023-04-03T02:44:59;5.50;99.90
7998;DHT22;4044;49.814;7.828;2023-04-03T02:47:26;5.50;99.90
7998;DHT22;4044;49.814;7.828;2023-04-03T02:49:52;5.50;99.90
7998;DHT22;4044;49.814;7.828;2023-04-03T02:52:18;5.50;99.90
7998;DHT22;4044;49.814;7.828;2023-04-03T02:54:43;5.40;99.90
7998;DHT22;4044;49.814;7.828;2023-04-03T02:57:09;5.40;99.90
7998;DHT22;4044;49.814;7.828;2023-04-03T02:59:38;5.30;99.90
7998;DHT22;4044;49.814;7.828;2023-04-03T03:02:08;5.30;99.90
7998;DHT22;4044;49.814;7.828;2023-04-03T03:04:33;5.20;99.90
7998;DHT22;4044;49.814;7.828;2023-04-03T03:06:59;5.20;99.90
7998;DHT22;4044;49.814;7.828;2023-04-03T03:09:25;5.20;99.90
7998;DHT22;4044;49.814;7.828;2023-04-03T03:11:52;5.20;99.90
7998;DHT22;4044;49.814;7.828;2023-04-03T03:14:17;5.20;99.90
7998;DHT22;4044;49.814;7.828;2023-04-03T03:16:43;5.20;99.90
7998;DHT22;4044;49.814;7.828;2023-04-03T03:19:09;5.20;99.90
7998;DHT22;4044;49.814;7.828;2023-04-03T03:21:34;5.20;99.90
7998;DHT22;4044;49.814;7.828;2023-04-03T03:24:00;5.20;99.90
7998;DHT22;4044;49.814;7.828;2023-04-03T03:26:25;5.10;99.90
7998;DHT22;4044;49.814;7.828;2023-04-03T03:28:51;5.10;99.90
7998;DHT22;4044;49.814;7.828;2023-04-03T03:31:17;5.10;99.90
7998;DHT22;4044;49.814;7.828;2023-04-03T03:33:42;5.10;99.90
7998;DHT22;4044;49.814;7.828;2023-04-03T03:36:08;5.10;99.90
7998;DHT22;4044;49.814;7.828;2023-04-03T03:38:33;5.10;99.90
7998;DHT22;4044;49.814;7.828;2023-04-03T03:40:59;5.00;99.90
7998;DHT22;4044;49.814;7.828;2023-04-03T03:43:25;5.00;99.90
7998;DHT22;4044;49.814;7.828;2023-04-03T03:45:52;5.00;99.90
7998;DHT22;4044;49.814;7.828;2023-04-03T03:48:18;5.00;99.90
7998;DHT22;4044;49.814;7.828;2023-04-03T03:50:44;4.90;99.90
7998;DHT22;4044;49.814;7.828;2023-04-03T03:53:09;4.90;99.90
7998;DHT22;4044;49.814;7.828;2023-04-03T03:55:35;4.90;99.90
7998;DHT22;4044;49.814;7.828;2023-04-03T03:58:01;4.80;99.90
7998;DHT22;4044;49.814;7.828;2023-04-03T04:00:27;4.70;99.90
7998;DHT22;4044;49.814;7.828;2023-04-03T04:02:52;4.70;99.90
7998;DHT22;4044;49.814;7.828;2023-04-03T04:05:18;4.60;99.90
7998;DHT22;4044;49.814;7.828;2023-04-03T04:07:43;4.60;99.90
7998;DHT22;4044;49.814;7.828;2023-04-03T04:10:09;4.50;99.90
7998;DHT22;4044;49.814;7.828;2023-04-03T04:12:35;4.50;99.90
7998;DHT22;4044;49.814;7.828;2023-04-03T04:15:01;4.40;99.90
7998;DHT22;4044;49.814;7.828;2023-04-03T04:17:27;4.40;99.90
7998;DHT22;4044;49.814;7.828;2023-04-03T04:19:53;4.40;99.90
7998;DHT22;4044;49.814;7.828;2023-04-03T04:22:18;4.30;99.90
7998;DHT22;4044;49.814;7.828;2023-04-03T04:24:44;4.20;99.90
7998;DHT22;4044;49.814;7.828;2023-04-03T04:27:09;4.30;99.90
7998;DHT22;4044;49.814;7.828;2023-04-03T04:29:36;4.20;99.90
7998;DHT22;4044;49.814;7.828;2023-04-03T04:32:03;4.20;99.90
7998;DHT22;4044;49.814;7.828;2023-04-03T04:34:29;4.20;99.90
7998;DHT22;4044;49.814;7.828;2023-04-03T04:36:55;4.10;99.90
7998;DHT22;4044;49.814;7.828;2023-04-03T04:39:20;4.00;99.90
7998;DHT22;4044;49.814;7.828;2023-04-03T04:41:46;4.00;99.90
7998;DHT22;4044;49.814;7.828;2023-04-03T04:44:11;3.90;99.90
7998;DHT22;4044;49.814;7.828;2023-04-03T04:46:37;3.80;99.90
7998;DHT22;4044;49.814;7.828;2023-04-03T04:49:02;3.80;99.90
7998;DHT22;4044;49.814;7.828;2023-04-03T04:51:28;3.70;99.90
7998;DHT22;4044;49.814;7.828;2023-04-03T04:53:53;3.60;99.90
7998;DHT22;4044;49.814;7.828;2023-04-03T04:56:19;3.50;99.90
7998;DHT22;4044;49.814;7.828;2023-04-03T04:58:44;3.50;99.90
7998;DHT22;4044;49.814;7.828;2023-04-03T05:01:10;3.50;99.90
7998;DHT22;4044;49.814;7.828;2023-04-03T05:03:36;3.40;99.90
7998;DHT22;4044;49.814;7.828;2023-04-03T05:06:02;3.30;99.90
7998;DHT22;4044;49.814;7.828;2023-04-03T05:08:28;3.30;99.90
7998;DHT22;4044;49.814;7.828;2023-04-03T05:10:54;3.30;99.90
7998;DHT22;4044;49.814;7.828;2023-04-03T05:13:20;3.30;99.90
7998;DHT22;4044;49.814;7.828;2023-04-03T05:15:46;3.40;99.90
7998;DHT22;4044;49.814;7.828;2023-04-03T05:18:11;3.40;99.90
7998;DHT22;4044;49.814;7.828;2023-04-03T05:20:37;3.50;99.90
7998;DHT22;4044;49.814;7.828;2023-04-03T05:23:03;3.50;99.90
7998;DHT22;4044;49.814;7.828;2023-04-03T05:25:28;3.50;99.90
7998;DHT22;4044;49.814;7.828;2023-04-03T05:27:54;3.60;99.90
7998;DHT22;4044;49.814;7.828;2023-04-03T05:30:19;3.60;99.90
7998;DHT22;4044;49.814;7.828;2023-04-03T05:32:45;3.70;99.90
7998;DHT22;4044;49.814;7.828;2023-04-03T05:35:11;3.80;99.90
7998;DHT22;4044;49.814;7.828;2023-04-03T05:37:36;3.80;99.90
7998;DHT22;4044;49.814;7.828;2023-04-03T05:40:04;3.80;99.90
7998;DHT22;4044;49.814;7.828;2023-04-03T05:42:30;3.90;99.90
7998;DHT22;4044;49.814;7.828;2023-04-03T05:44:55;3.90;99.90
7998;DHT22;4044;49.814;7.828;2023-04-03T05:47:21;4.00;99.90
7998;DHT22;4044;49.814;7.828;2023-04-03T05:49:46;4.10;99.90
7998;DHT22;4044;49.814;7.828;2023-04-03T05:52:25;4.20;99.90
7998;DHT22;4044;49.814;7.828;2023-04-03T05:54:51;4.20;99.90
7998;DHT22;4044;49.814;7.828;2023-04-03T05:57:17;4.20;99.90
7998;DHT22;4044;49.814;7.828;2023-04-03T05:59:44;4.20;99.90
7998;DHT22;4044;49.814;7.828;2023-04-03T06:02:12;4.10;99.90
7998;DHT22;4044;49.814;7.828;2023-04-03T06:04:38;4.10;99.90
7998;DHT22;4044;49.814;7.828;2023-04-03T06:07:04;4.10;99.90
7998;DHT22;4044;49.814;7.828;2023-04-03T06:09:30;4.10;99.90
7998;DHT22;4044;49.814;7.828;2023-04-03T06:11:56;4.10;99.90
7998;DHT22;4044;49.814;7.828;2023-04-03T06:14:24;4.10;99.90
7998;DHT22;4044;49.814;7.828;2023-04-03T06:16:52;4.30;99.90
7998;DHT22;4044;49.814;7.828;2023-04-03T06:19:18;4.40;99.90
7998;DHT22;4044;49.814;7.828;2023-04-03T06:21:43;4.50;99.90
7998;DHT22;4044;49.814;7.828;2023-04-03T06:24:10;4.60;99.90
7998;DHT22;4044;49.814;7.828;2023-04-03T06:26:37;4.70;99.90
7998;DHT22;4044;49.814;7.828;2023-04-03T06:29:03;4.80;99.90
7998;DHT22;4044;49.814;7.828;2023-04-03T06:31:28;4.90;99.90
7998;DHT22;4044;49.814;7.828;2023-04-03T06:33:54;5.10;99.90
7998;DHT22;4044;49.814;7.828;2023-04-03T06:36:20;5.00;99.80
7998;DHT22;4044;49.814;7.828;2023-04-03T06:38:47;5.10;99.90
7998;DHT22;4044;49.814;7.828;2023-04-03T06:41:12;5.10;99.90
7998;DHT22;4044;49.814;7.828;2023-04-03T06:43:38;5.10;99.90
7998;DHT22;4044;49.814;7.828;2023-04-03T06:46:04;5.10;99.90
7998;DHT22;4044;49.814;7.828;2023-04-03T06:48:30;5.00;99.90
7998;DHT22;4044;49.814;7.828;2023-04-03T06:50:56;5.00;99.90
7998;DHT22;4044;49.814;7.828;2023-04-03T06:53:21;5.00;99.90
7998;DHT22;4044;49.814;7.828;2023-04-03T06:55:47;4.90;99.90
7998;DHT22;4044;49.814;7.828;2023-04-03T06:58:12;4.90;99.70
7998;DHT22;4044;49.814;7.828;2023-04-03T07:00:39;4.80;99.90
7998;DHT22;4044;49.814;7.828;2023-04-03T07:03:04;4.90;99.90
7998;DHT22;4044;49.814;7.828;2023-04-03T07:05:30;4.90;99.90
7998;DHT22;4044;49.814;7.828;2023-04-03T07:07:56;4.90;99.90
7998;DHT22;4044;49.814;7.828;2023-04-03T07:10:22;5.00;99.90
7998;DHT22;4044;49.814;7.828;2023-04-03T07:12:48;5.00;99.90
7998;DHT22;4044;49.814;7.828;2023-04-03T07:15:13;5.10;99.90
7998;DHT22;4044;49.814;7.828;2023-04-03T07:17:39;5.10;99.90
7998;DHT22;4044;49.814;7.828;2023-04-03T07:20:06;5.10;99.90
7998;DHT22;4044;49.814;7.828;2023-04-03T07:22:32;5.20;99.90
7998;DHT22;4044;49.814;7.828;2023-04-03T07:24:58;5.20;99.90
7998;DHT22;4044;49.814;7.828;2023-04-03T07:27:24;5.20;99.90
7998;DHT22;4044;49.814;7.828;2023-04-03T07:29:50;5.20;99.90
7998;DHT22;4044;49.814;7.828;2023-04-03T07:32:16;5.20;99.90
7998;DHT22;4044;49.814;7.828;2023-04-03T07:34:43;5.30;99.80
7998;DHT22;4044;49.814;7.828;2023-04-03T07:37:09;5.30;99.90
7998;DHT22;4044;49.814;7.828;2023-04-03T07:39:34;5.40;99.90
7998;DHT22;4044;49.814;7.828;2023-04-03T07:42:00;5.40;99.70
7998;DHT22;4044;49.814;7.828;2023-04-03T07:44:27;5.40;99.40
7998;DHT22;4044;49.814;7.828;2023-04-03T07:46:53;5.50;99.60
7998;DHT22;4044;49.814;7.828;2023-04-03T07:49:18;5.60;99.80
7998;DHT22;4044;49.814;7.828;2023-04-03T07:51:44;5.60;99.70
7998;DHT22;4044;49.814;7.828;2023-04-03T07:54:10;5.70;98.90
7998;DHT22;4044;49.814;7.828;2023-04-03T07:56:35;5.90;99.10
7998;DHT22;4044;49.814;7.828;2023-04-03T07:59:01;5.90;99.10
7998;DHT22;4044;49.814;7.828;2023-04-03T08:01:27;5.90;98.70
7998;DHT22;4044;49.814;7.828;2023-04-03T08:03:53;6.00;98.40
7998;DHT22;4044;49.814;7.828;2023-04-03T08:06:18;6.00;98.40
7998;DHT22;4044;49.814;7.828;2023-04-03T08:08:44;6.00;98.50
7998;DHT22;4044;49.814;7.828;2023-04-03T08:11:10;6.00;98.20
7998;DHT22;4044;49.814;7.828;2023-04-03T08:13:36;6.00;97.80
7998;DHT22;4044;49.814;7.828;2023-04-03T08:16:12;6.00;97.40
7998;DHT22;4044;49.814;7.828;2023-04-03T08:18:38;5.90;97.00
7998;DHT22;4044;49.814;7.828;2023-04-03T08:21:09;5.90;97.20
7998;DHT22;4044;49.814;7.828;2023-04-03T08:23:36;5.90;96.60
7998;DHT22;4044;49.814;7.828;2023-04-03T08:26:27;5.90;96.30
7998;DHT22;4044;49.814;7.828;2023-04-03T08:28:53;5.90;96.50
7998;DHT22;4044;49.814;7.828;2023-04-03T08:31:19;5.90;96.70
7998;DHT22;4044;49.814;7.828;2023-04-03T08:33:45;6.00;96.80
7998;DHT22;4044;49.814;7.828;2023-04-03T08:36:23;6.10;97.00
7998;DHT22;4044;49.814;7.828;2023-04-03T08:38:50;6.10;96.80
7998;DHT22;4044;49.814;7.828;2023-04-03T08:46:20;6.10;96.30
7998;DHT22;4044;49.814;7.828;2023-04-03T08:48:49;6.20;96.30
7998;DHT22;4044;49.814;7.828;2023-04-03T08:51:18;6.20;96.40
7998;DHT22;4044;49.814;7.828;2023-04-03T08:54:04;6.20;96.50
7998;DHT22;4044;49.814;7.828;2023-04-03T08:56:33;6.30;96.10
7998;DHT22;4044;49.814;7.828;2023-04-03T08:59:09;6.30;96.00
7998;DHT22;4044;49.814;7.828;2023-04-03T09:01:38;6.40;96.00
7998;DHT22;4044;49.814;7.828;2023-04-03T09:04:13;6.50;96.60
7998;DHT22;4044;49.814;7.828;2023-04-03T09:06:39;6.60;96.60
7998;DHT22;4044;49.814;7.828;2023-04-03T09:09:32;6.70;97.00
7998;DHT22;4044;49.814;7.828;2023-04-03T09:15:23;6.70;96.10
7998;DHT22;4044;49.814;7.828;2023-04-03T09:18:03;6.60;95.90
7998;DHT22;4044;49.814;7.828;2023-04-03T09:23:45;6.70;95.50
7998;DHT22;4044;49.814;7.828;2023-04-03T09:26:18;6.80;95.30
7998;DHT22;4044;49.814;7.828;2023-04-03T09:28:46;6.90;95.70
7998;DHT22;4044;49.814;7.828;2023-04-03T09:31:42;7.00;95.40
7998;DHT22;4044;49.814;7.828;2023-04-03T09:34:27;7.10;94.40
7998;DHT22;4044;49.814;7.828;2023-04-03T09:36:56;7.30;94.60
7998;DHT22;4044;49.814;7.828;2023-04-03T09:39:25;7.40;94.00
7998;DHT22;4044;49.814;7.828;2023-04-03T09:41:59;7.40;93.40
7998;DHT22;4044;49.814;7.828;2023-04-03T09:44:37;7.50;93.50
7998;DHT22;4044;49.814;7.828;2023-04-03T09:52:40;7.70;93.70
7998;DHT22;4044;49.814;7.828;2023-04-03T09:55:14;7.80;93.40
7998;DHT22;4044;49.814;7.828;2023-04-03T09:57:40;8.00;93.10
7998;DHT22;4044;49.814;7.828;2023-04-03T10:00:30;7.90;92.10
7998;DHT22;4044;49.814;7.828;2023-04-03T10:02:58;7.70;92.30
7998;DHT22;4044;49.814;7.828;2023-04-03T10:05:32;8.00;92.00
7998;DHT22;4044;49.814;7.828;2023-04-03T10:10:44;8.70;91.30
7998;DHT22;4044;49.814;7.828;2023-04-03T10:13:16;8.80;91.10
7998;DHT22;4044;49.814;7.828;2023-04-03T10:15:46;8.80;91.20
7998;DHT22;4044;49.814;7.828;2023-04-03T10:18:46;8.90;91.60
7998;DHT22;4044;49.814;7.828;2023-04-03T10:21:23;9.10;90.80
7998;DHT22;4044;49.814;7.828;2023-04-03T10:24:42;9.20;89.90
7998;DHT22;4044;49.814;7.828;2023-04-03T10:27:04;9.20;89.40
7998;DHT22;4044;49.814;7.828;2023-04-03T10:32:14;9.20;88.50
7998;DHT22;4044;49.814;7.828;2023-04-03T10:34:44;9.20;87.80
7998;DHT22;4044;49.814;7.828;2023-04-03T10:37:24;9.20;86.70
7998;DHT22;4044;49.814;7.828;2023-04-03T10:43:15;9.50;87.10
7998;DHT22;4044;49.814;7.828;2023-04-03T10:49:02;9.60;85.20
7998;DHT22;4044;49.814;7.828;2023-04-03T10:51:43;9.40;86.10
7998;DHT22;4044;49.814;7.828;2023-04-03T10:54:20;9.20;85.70
7998;DHT22;4044;49.814;7.828;2023-04-03T10:57:01;9.40;85.50
7998;DHT22;4044;49.814;7.828;2023-04-03T11:02:00;10.10;84.10
7998;DHT22;4044;49.814;7.828;2023-04-03T11:04:30;10.20;84.00
7998;DHT22;4044;49.814;7.828;2023-04-03T11:07:00;10.60;84.30
7998;DHT22;4044;49.814;7.828;2023-04-03T11:09:33;11.00;84.60
7998;DHT22;4044;49.814;7.828;2023-04-03T11:12:10;11.40;84.40
7998;DHT22;4044;49.814;7.828;2023-04-03T11:14:37;11.10;81.60
7998;DHT22;4044;49.814;7.828;2023-04-03T11:22:43;10.30;82.70
7998;DHT22;4044;49.814;7.828;2023-04-03T11:27:44;9.90;84.00
7998;DHT22;4044;49.814;7.828;2023-04-03T11:30:33;9.80;84.00
7998;DHT22;4044;49.814;7.828;2023-04-03T11:35:26;10.30;84.60
7998;DHT22;4044;49.814;7.828;2023-04-03T11:37:52;10.40;82.60
7998;DHT22;4044;49.814;7.828;2023-04-03T11:40:31;10.40;81.00
7998;DHT22;4044;49.814;7.828;2023-04-03T11:43:05;10.30;81.60
7998;DHT22;4044;49.814;7.828;2023-04-03T11:50:54;11.10;82.80
7998;DHT22;4044;49.814;7.828;2023-04-03T11:53:31;11.30;82.40
7998;DHT22;4044;49.814;7.828;2023-04-03T11:56:00;11.60;81.80
7998;DHT22;4044;49.814;7.828;2023-04-03T12:45:58;14.00;68.70
7998;DHT22;4044;49.814;7.828;2023-04-03T12:48:28;13.70;69.90
7998;DHT22;4044;49.814;7.828;2023-04-03T12:50:55;13.50;70.10
7998;DHT22;4044;49.814;7.828;2023-04-03T12:53:31;13.10;70.70
7998;DHT22;4044;49.814;7.828;2023-04-03T12:56:21;12.80;70.80
7998;DHT22;4044;49.814;7.828;2023-04-03T12:58:48;12.60;73.20
7998;DHT22;4044;49.814;7.828;2023-04-03T13:01:17;12.40;71.10
7998;DHT22;4044;49.814;7.828;2023-04-03T13:03:45;12.30;72.80
7998;DHT22;4044;49.814;7.828;2023-04-03T13:06:22;12.60;73.20
7998;DHT22;4044;49.814;7.828;2023-04-03T13:08:50;13.20;72.80
7998;DHT22;4044;49.814;7.828;2023-04-03T13:11:16;13.10;71.20
7998;DHT22;4044;49.814;7.828;2023-04-03T13:13:54;12.70;71.00
7998;DHT22;4044;49.814;7.828;2023-04-03T13:16:20;13.90;71.70
7998;DHT22;4044;49.814;7.828;2023-04-03T13:18:51;13.80;70.60
7998;DHT22;4044;49.814;7.828;2023-04-03T13:21:28;13.60;70.20
7998;DHT22;4044;49.814;7.828;2023-04-03T13:23:58;14.10;68.90
7998;DHT22;4044;49.814;7.828;2023-04-03T13:26:28;13.60;67.90
7998;DHT22;4044;49.814;7.828;2023-04-03T13:29:07;13.30;68.60
7998;DHT22;4044;49.814;7.828;2023-04-03T13:31:43;13.20;69.40
7998;DHT22;4044;49.814;7.828;2023-04-03T13:34:16;13.40;68.00
7998;DHT22;4044;49.814;7.828;2023-04-03T13:36:55;13.50;68.00
7998;DHT22;4044;49.814;7.828;2023-04-03T13:39:30;14.40;67.90
7998;DHT22;4044;49.814;7.828;2023-04-03T13:41:59;15.20;64.10
7998;DHT22;4044;49.814;7.828;2023-04-03T13:44:30;16.30;66.20
7998;DHT22;4044;49.814;7.828;2023-04-03T13:46:59;16.50;61.30
7998;DHT22;4044;49.814;7.828;2023-04-03T13:49:35;16.20;62.90
7998;DHT22;4044;49.814;7.828;2023-04-03T13:52:17;16.10;63.40
7998;DHT22;4044;49.814;7.828;2023-04-03T13:54:48;15.60;61.70
7998;DHT22;4044;49.814;7.828;2023-04-03T13:57:17;16.50;63.10
7998;DHT22;4044;49.814;7.828;2023-04-03T13:59:45;17.60;61.60
7998;DHT22;4044;49.814;7.828;2023-04-03T14:02:15;18.20;60.00
7998;DHT22;4044;49.814;7.828;2023-04-03T14:07:11;17.20;59.10
7998;DHT22;4044;49.814;7.828;2023-04-03T14:09:37;17.70;58.70
7998;DHT22;4044;49.814;7.828;2023-04-03T14:14:42;18.80;57.70
7998;DHT22;4044;49.814;7.828;2023-04-03T14:17:17;19.80;57.30
7998;DHT22;4044;49.814;7.828;2023-04-03T14:19:44;20.20;55.00
7998;DHT22;4044;49.814;7.828;2023-04-03T14:22:25;20.20;54.60
7998;DHT22;4044;49.814;7.828;2023-04-03T14:24:52;20.60;54.40
7998;DHT22;4044;49.814;7.828;2023-04-03T14:27:21;20.90;55.60
7998;DHT22;4044;49.814;7.828;2023-04-03T14:29:49;21.30;53.30
7998;DHT22;4044;49.814;7.828;2023-04-03T14:32:16;21.50;52.20
7998;DHT22;4044;49.814;7.828;2023-04-03T14:34:43;21.50;51.20
7998;DHT22;4044;49.814;7.828;2023-04-03T14:37:18;21.80;52.60
7998;DHT22;4044;49.814;7.828;2023-04-03T14:39:45;21.80;50.90
7998;DHT22;4044;49.814;7.828;2023-04-03T14:42:19;21.90;50.50
7998;DHT22;4044;49.814;7.828;2023-04-03T14:44:45;21.80;50.70
7998;DHT22;4044;49.814;7.828;2023-04-03T14:47:12;22.20;52.00
7998;DHT22;4044;49.814;7.828;2023-04-03T14:49:39;22.60;50.70
7998;DHT22;4044;49.814;7.828;2023-04-03T14:52:05;22.50;50.60
7998;DHT22;4044;49.814;7.828;2023-04-03T14:54:30;22.00;50.00
7998;DHT22;4044;49.814;7.828;2023-04-03T14:56:58;21.30;49.40
7998;DHT22;4044;49.814;7.828;2023-04-03T14:59:25;21.10;49.50
7998;DHT22;4044;49.814;7.828;2023-04-03T15:01:51;21.10;48.90
7998;DHT22;4044;49.814;7.828;2023-04-03T15:04:19;21.20;49.10
7998;DHT22;4044;49.814;7.828;2023-04-03T15:06:45;21.00;48.40
7998;DHT22;4044;49.814;7.828;2023-04-03T15:11:47;21.40;48.60
7998;DHT22;4044;49.814;7.828;2023-04-03T15:14:12;21.70;49.10
7998;DHT22;4044;49.814;7.828;2023-04-03T15:16:38;21.80;49.20
7998;DHT22;4044;49.814;7.828;2023-04-03T15:19:03;21.80;47.90
7998;DHT22;4044;49.814;7.828;2023-04-03T15:21:29;22.00;48.90
7998;DHT22;4044;49.814;7.828;2023-04-03T15:23:55;21.90;47.60
7998;DHT22;4044;49.814;7.828;2023-04-03T15:26:20;21.70;48.40
7998;DHT22;4044;49.814;7.828;2023-04-03T15:28:46;21.60;48.30
7998;DHT22;4044;49.814;7.828;2023-04-03T15:31:12;21.90;47.90
7998;DHT22;4044;49.814;7.828;2023-04-03T15:33:37;21.70;47.60
7998;DHT22;4044;49.814;7.828;2023-04-03T15:36:03;21.90;47.20
7998;DHT22;4044;49.814;7.828;2023-04-03T15:38:29;21.80;46.00
7998;DHT22;4044;49.814;7.828;2023-04-03T15:40:56;21.30;46.30
7998;DHT22;4044;49.814;7.828;2023-04-03T15:43:22;21.30;47.10
7998;DHT22;4044;49.814;7.828;2023-04-03T15:45:49;20.70;45.90
7998;DHT22;4044;49.814;7.828;2023-04-03T15:48:16;20.70;46.40
7998;DHT22;4044;49.814;7.828;2023-04-03T15:50:42;21.00;46.80
7998;DHT22;4044;49.814;7.828;2023-04-03T15:53:08;21.00;46.90
7998;DHT22;4044;49.814;7.828;2023-04-03T15:55:35;20.80;46.50
7998;DHT22;4044;49.814;7.828;2023-04-03T15:58:01;20.90;47.30
7998;DHT22;4044;49.814;7.828;2023-04-03T16:00:28;20.80;45.20
7998;DHT22;4044;49.814;7.828;2023-04-03T16:03:16;20.60;46.10
7998;DHT22;4044;49.814;7.828;2023-04-03T16:05:42;20.50;45.80
7998;DHT22;4044;49.814;7.828;2023-04-03T16:08:08;20.50;46.20
7998;DHT22;4044;49.814;7.828;2023-04-03T16:10:35;20.40;46.60
7998;DHT22;4044;49.814;7.828;2023-04-03T16:13:02;20.50;45.50
7998;DHT22;4044;49.814;7.828;2023-04-03T16:15:28;20.70;46.30
7998;DHT22;4044;49.814;7.828;2023-04-03T16:17:54;20.40;46.20
7998;DHT22;4044;49.814;7.828;2023-04-03T16:20:20;20.20;47.00
7998;DHT22;4044;49.814;7.828;2023-04-03T16:22:47;20.20;46.20
7998;DHT22;4044;49.814;7.828;2023-04-03T16:25:13;19.90;47.40
7998;DHT22;4044;49.814;7.828;2023-04-03T16:27:38;19.60;46.80
7998;DHT22;4044;49.814;7.828;2023-04-03T16:30:05;19.60;46.40
7998;DHT22;4044;49.814;7.828;2023-04-03T16:32:31;19.30;46.80
7998;DHT22;4044;49.814;7.828;2023-04-03T16:34:58;19.00;46.80
7998;DHT22;4044;49.814;7.828;2023-04-03T16:37:23;18.50;46.80
7998;DHT22;4044;49.814;7.828;2023-04-03T16:39:49;17.80;47.50
7998;DHT22;4044;49.814;7.828;2023-04-03T16:42:15;16.80;47.80
7998;DHT22;4044;49.814;7.828;2023-04-03T16:44:41;16.30;47.80
7998;DHT22;4044;49.814;7.828;2023-04-03T16:47:06;15.50;49.10
7998;DHT22;4044;49.814;7.828;2023-04-03T16:49:33;15.00;50.00
7998;DHT22;4044;49.814;7.828;2023-04-03T16:52:00;14.40;50.40
7998;DHT22;4044;49.814;7.828;2023-04-03T16:54:26;13.90;50.90
7998;DHT22;4044;49.814;7.828;2023-04-03T16:56:51;13.50;51.30
7998;DHT22;4044;49.814;7.828;2023-04-03T16:59:17;13.10;51.50
7998;DHT22;4044;49.814;7.828;2023-04-03T17:01:42;12.70;52.50
7998;DHT22;4044;49.814;7.828;2023-04-03T17:04:08;12.30;53.10
7998;DHT22;4044;49.814;7.828;2023-04-03T17:06:34;12.00;53.70
7998;DHT22;4044;49.814;7.828;2023-04-03T17:08:59;11.80;53.90
7998;DHT22;4044;49.814;7.828;2023-04-03T17:11:28;11.50;54.30
7998;DHT22;4044;49.814;7.828;2023-04-03T17:13:54;11.30;54.80
7998;DHT22;4044;49.814;7.828;2023-04-03T17:16:20;11.10;55.70
7998;DHT22;4044;49.814;7.828;2023-04-03T17:18:47;11.00;55.60
7998;DHT22;4044;49.814;7.828;2023-04-03T17:21:13;10.80;55.50
7998;DHT22;4044;49.814;7.828;2023-04-03T17:23:41;10.80;56.20
7998;DHT22;4044;49.814;7.828;2023-04-03T17:26:07;10.70;56.10
7998;DHT22;4044;49.814;7.828;2023-04-03T17:28:33;10.40;56.10
7998;DHT22;4044;49.814;7.828;2023-04-03T17:31:00;10.40;56.70
7998;DHT22;4044;49.814;7.828;2023-04-03T17:33:27;10.20;56.90
7998;DHT22;4044;49.814;7.828;2023-04-03T17:35:59;10.20;57.00
7998;DHT22;4044;49.814;7.828;2023-04-03T17:38:26;10.20;57.50
7998;DHT22;4044;49.814;7.828;2023-04-03T17:40:59;10.00;57.80
7998;DHT22;4044;49.814;7.828;2023-04-03T17:43:26;9.70;58.40
7998;DHT22;4044;49.814;7.828;2023-04-03T17:45:52;9.50;59.00
7998;DHT22;4044;49.814;7.828;2023-04-03T17:48:18;9.30;59.50
7998;DHT22;4044;49.814;7.828;2023-04-03T17:50:43;9.10;60.20
7998;DHT22;4044;49.814;7.828;2023-04-03T17:53:09;8.80;60.30
7998;DHT22;4044;49.814;7.828;2023-04-03T17:55:38;8.70;60.30
7998;DHT22;4044;49.814;7.828;2023-04-03T17:58:04;8.50;61.40
7998;DHT22;4044;49.814;7.828;2023-04-03T18:00:30;8.40;61.20
7998;DHT22;4044;49.814;7.828;2023-04-03T18:02:56;8.20;62.10